createdAt,value
2018-12-19T00:00:19.856Z,8.30
2018-12-19T00:01:25.395Z,8.60
2018-12-19T00:02:30.918Z,9.50
2018-12-19T00:03:36.452Z,9.00
2018-12-19T00:04:41.985Z,9.40
2018-12-19T00:05:47.510Z,8.90
2018-12-19T00:06:53.048Z,9.30
2018-12-19T00:07:58.574Z,9.20
2018-12-19T00:09:04.105Z,8.30
2018-12-19T00:10:09.632Z,8.20
2018-12-19T00:11:15.166Z,7.90
2018-12-19T00:12:20.693Z,9.30
2018-12-19T00:13:26.226Z,8.70
2018-12-19T00:14:31.757Z,8.90
2018-12-19T00:15:37.293Z,9.40
2018-12-19T00:16:42.820Z,8.30
2018-12-19T00:17:48.348Z,8.20
2018-12-19T00:18:53.882Z,9.70
2018-12-19T00:19:59.412Z,7.90
2018-12-19T00:21:04.941Z,8.30
2018-12-19T00:22:10.469Z,8.30
2018-12-19T00:23:16.004Z,8.70
2018-12-19T00:24:21.536Z,8.20
2018-12-19T00:25:27.063Z,9.20
2018-12-19T00:26:32.598Z,9.00
2018-12-19T00:27:38.123Z,9.30
2018-12-19T00:28:43.666Z,9.10
2018-12-19T00:29:49.187Z,9.00
2018-12-19T00:30:54.717Z,8.00
2018-12-19T00:32:00.246Z,8.80
2018-12-19T00:33:05.776Z,7.90
2018-12-19T00:34:11.305Z,8.00
2018-12-19T00:35:16.834Z,8.40
2018-12-19T00:36:22.366Z,8.20
2018-12-19T00:37:27.905Z,7.80
2018-12-19T00:38:33.440Z,8.00
2018-12-19T00:39:38.962Z,8.20
2018-12-19T00:40:44.493Z,8.90
2018-12-19T00:41:50.026Z,8.40
2018-12-19T00:42:55.553Z,8.80
2018-12-19T00:44:01.086Z,8.30
2018-12-19T00:45:06.612Z,8.60
2018-12-19T00:46:12.145Z,8.90
2018-12-19T00:47:17.675Z,7.90
2018-12-19T00:48:23.206Z,8.30
2018-12-19T00:49:28.735Z,8.70
2018-12-19T00:50:34.266Z,7.40
2018-12-19T00:51:39.798Z,8.40
2018-12-19T00:52:45.325Z,8.70
2018-12-19T00:53:50.857Z,7.60
2018-12-19T00:54:56.389Z,7.50
2018-12-19T00:56:01.919Z,7.30
2018-12-19T00:57:07.448Z,7.90
2018-12-19T00:58:12.976Z,7.90
2018-12-19T00:59:18.510Z,7.70
2018-12-19T01:00:24.043Z,8.00
2018-12-19T01:01:29.575Z,7.90
2018-12-19T01:02:35.101Z,7.90
2018-12-19T01:03:40.634Z,8.10
2018-12-19T01:04:48.224Z,7.60
2018-12-19T01:05:51.692Z,8.10
2018-12-19T01:06:57.225Z,7.40
2018-12-19T01:08:02.753Z,8.10
2018-12-19T01:09:08.290Z,8.30
2018-12-19T01:10:13.815Z,8.10
2018-12-19T01:11:19.351Z,8.40
2018-12-19T01:12:24.880Z,7.70
2018-12-19T01:13:30.405Z,7.10
2018-12-19T01:14:35.937Z,8.10
2018-12-19T01:15:41.466Z,7.40
2018-12-19T01:16:47.009Z,8.40
2018-12-19T01:17:52.529Z,8.90
2018-12-19T01:18:58.058Z,8.90
2018-12-19T01:20:03.595Z,8.00
2018-12-19T01:21:09.120Z,8.10
2018-12-19T01:22:14.658Z,9.30
2018-12-19T01:23:20.183Z,8.00
2018-12-19T01:24:25.714Z,8.40
2018-12-19T01:25:31.243Z,8.20
2018-12-19T01:26:36.779Z,8.70
2018-12-19T01:27:42.307Z,7.80
2018-12-19T01:28:47.835Z,7.60
2018-12-19T01:29:53.370Z,8.30
2018-12-19T01:30:58.898Z,8.70
2018-12-19T01:32:04.430Z,8.40
2018-12-19T01:33:09.957Z,7.50
2018-12-19T01:34:15.485Z,7.70
2018-12-19T01:35:21.022Z,8.00
2018-12-19T01:36:26.553Z,8.00
2018-12-19T01:37:32.081Z,7.50
2018-12-19T01:38:37.610Z,8.60
2018-12-19T01:39:43.135Z,7.90
2018-12-19T01:40:48.726Z,8.90
2018-12-19T01:41:54.204Z,7.60
2018-12-19T01:42:59.725Z,7.80
2018-12-19T01:44:05.263Z,9.60
2018-12-19T01:45:10.792Z,8.30
2018-12-19T01:46:16.319Z,7.50
2018-12-19T01:47:21.849Z,8.70
2018-12-19T01:48:27.384Z,8.70
2018-12-19T01:49:32.908Z,8.10
2018-12-19T01:50:38.444Z,9.00
2018-12-19T01:51:43.973Z,8.50
2018-12-19T01:52:49.501Z,9.00
2018-12-19T01:53:55.038Z,8.30
2018-12-19T01:55:00.563Z,9.30
2018-12-19T01:56:06.094Z,9.30
2018-12-19T01:57:11.625Z,9.30
2018-12-19T01:58:17.160Z,8.80
2018-12-19T01:59:22.680Z,8.90
2018-12-19T02:00:28.212Z,8.50
2018-12-19T02:01:33.747Z,8.80
2018-12-19T02:02:39.274Z,8.90
2018-12-19T02:03:44.810Z,8.70
2018-12-19T02:04:50.336Z,9.00
2018-12-19T02:05:55.865Z,9.10
2018-12-19T02:07:01.397Z,9.20
2018-12-19T02:08:06.927Z,9.70
2018-12-19T02:09:12.459Z,9.20
2018-12-19T02:10:17.986Z,9.20
2018-12-19T02:11:23.525Z,9.30
2018-12-19T02:12:29.047Z,9.40
2018-12-19T02:13:34.582Z,9.10
2018-12-19T02:14:40.113Z,9.80
2018-12-19T02:15:45.639Z,8.80
2018-12-19T02:16:51.174Z,8.60
2018-12-19T02:17:56.699Z,7.50
2018-12-19T02:19:02.230Z,8.30
2018-12-19T02:20:07.761Z,8.20
2018-12-19T02:21:13.289Z,8.80
2018-12-19T02:22:18.821Z,9.40
2018-12-19T02:23:24.353Z,9.80
2018-12-19T02:24:29.898Z,8.80
2018-12-19T02:25:35.412Z,9.10
2018-12-19T02:26:40.940Z,9.40
2018-12-19T02:27:46.475Z,9.20
2018-12-19T02:28:52.004Z,10.70
2018-12-19T02:29:57.534Z,9.90
2018-12-19T02:31:03.066Z,9.00
2018-12-19T02:32:08.598Z,10.50
2018-12-19T02:33:14.131Z,9.50
2018-12-19T02:34:19.660Z,8.90
2018-12-19T02:35:25.184Z,9.00
2018-12-19T02:36:30.716Z,9.60
2018-12-19T02:37:36.244Z,8.70
2018-12-19T02:38:41.776Z,8.40
2018-12-19T02:39:47.305Z,8.80
2018-12-19T02:40:52.836Z,9.30
2018-12-19T02:41:58.366Z,8.60
2018-12-19T02:43:03.898Z,9.50
2018-12-19T02:44:09.431Z,8.90
2018-12-19T02:45:14.961Z,9.30
2018-12-19T02:46:20.492Z,9.30
2018-12-19T02:47:26.024Z,9.30
2018-12-19T02:48:31.555Z,8.40
2018-12-19T02:49:37.084Z,8.80
2018-12-19T02:50:42.615Z,9.00
2018-12-19T02:51:48.140Z,8.40
2018-12-19T02:52:53.669Z,9.10
2018-12-19T02:53:59.207Z,8.50
2018-12-19T02:55:04.731Z,9.80
2018-12-19T02:56:10.263Z,9.90
2018-12-19T02:57:15.797Z,9.20
2018-12-19T02:58:21.324Z,8.90
2018-12-19T02:59:26.852Z,9.70
2018-12-19T03:00:32.382Z,10.10
2018-12-19T03:01:37.915Z,9.10
2018-12-19T03:02:43.443Z,9.30
2018-12-19T03:03:48.978Z,8.40
2018-12-19T03:04:54.510Z,8.70
2018-12-19T03:06:00.051Z,8.10
2018-12-19T03:07:05.562Z,9.80
2018-12-19T03:08:11.097Z,8.00
2018-12-19T03:09:16.694Z,8.50
2018-12-19T03:10:22.156Z,8.90
2018-12-19T03:11:27.684Z,9.00
2018-12-19T03:12:33.218Z,9.20
2018-12-19T03:13:38.745Z,9.00
2018-12-19T03:14:44.278Z,9.60
2018-12-19T03:15:49.818Z,9.70
2018-12-19T03:16:55.344Z,9.70
2018-12-19T03:18:00.868Z,9.60
2018-12-19T03:19:06.396Z,8.30
2018-12-19T03:20:11.928Z,8.90
2018-12-19T03:21:17.461Z,9.00
2018-12-19T03:22:22.991Z,9.40
2018-12-19T03:23:28.519Z,9.80
2018-12-19T03:24:34.057Z,9.10
2018-12-19T03:25:39.582Z,10.10
2018-12-19T03:26:45.111Z,9.50
2018-12-19T03:27:50.639Z,9.20
2018-12-19T03:28:56.170Z,9.20
2018-12-19T03:30:01.714Z,9.40
2018-12-19T03:31:07.318Z,9.30
2018-12-19T03:32:12.765Z,9.00
2018-12-19T03:33:18.289Z,10.10
2018-12-19T03:34:23.823Z,9.50
2018-12-19T03:35:29.350Z,9.50
2018-12-19T03:36:34.884Z,9.30
2018-12-19T03:37:40.418Z,9.30
2018-12-19T03:38:45.944Z,9.30
2018-12-19T03:39:51.471Z,9.40
2018-12-19T03:40:57.003Z,9.50
2018-12-19T03:42:02.532Z,9.70
2018-12-19T03:43:08.067Z,9.70
2018-12-19T03:44:13.593Z,10.00
2018-12-19T03:45:19.126Z,9.70
2018-12-19T03:46:24.657Z,10.00
2018-12-19T03:47:30.185Z,9.60
2018-12-19T03:48:35.713Z,10.00
2018-12-19T03:49:41.246Z,9.40
2018-12-19T03:50:46.777Z,8.60
2018-12-19T03:51:52.305Z,9.10
2018-12-19T03:52:57.836Z,9.60
2018-12-19T03:54:03.366Z,9.30
2018-12-19T03:55:08.902Z,9.70
2018-12-19T03:56:14.430Z,9.60
2018-12-19T03:57:19.957Z,9.50
2018-12-19T03:58:25.486Z,9.30
2018-12-19T03:59:31.022Z,9.20
2018-12-19T04:00:36.546Z,10.40
2018-12-19T04:01:42.080Z,9.20
2018-12-19T04:02:47.614Z,9.60
2018-12-19T04:03:53.145Z,10.00
2018-12-19T04:04:58.675Z,9.60
2018-12-19T04:06:04.204Z,10.10
2018-12-19T04:07:09.731Z,10.10
2018-12-19T04:08:15.265Z,10.10
2018-12-19T04:09:20.794Z,9.80
2018-12-19T04:10:26.821Z,9.30
2018-12-19T04:11:31.853Z,9.80
2018-12-19T04:12:37.385Z,9.10
2018-12-19T04:13:42.913Z,10.50
2018-12-19T04:14:48.444Z,8.90
2018-12-19T04:15:53.979Z,10.10
2018-12-19T04:16:59.504Z,9.50
2018-12-19T04:18:05.034Z,10.50
2018-12-19T04:19:10.566Z,9.40
2018-12-19T04:20:16.095Z,10.00
2018-12-19T04:21:21.627Z,11.40
2018-12-19T04:22:27.156Z,9.60
2018-12-19T04:23:32.692Z,10.00
2018-12-19T04:24:38.220Z,10.30
2018-12-19T04:25:43.748Z,9.10
2018-12-19T04:26:49.281Z,9.70
2018-12-19T04:27:54.801Z,10.10
2018-12-19T04:29:00.343Z,10.90
2018-12-19T04:30:05.865Z,9.70
2018-12-19T04:31:11.397Z,11.10
2018-12-19T04:32:16.931Z,10.00
2018-12-19T04:33:22.460Z,10.20
2018-12-19T04:34:27.989Z,10.10
2018-12-19T04:35:33.520Z,10.20
2018-12-19T04:36:39.057Z,10.60
2018-12-19T04:37:44.580Z,10.30
2018-12-19T04:38:50.111Z,10.60
2018-12-19T04:39:55.644Z,9.50
2018-12-19T04:41:01.169Z,10.40
2018-12-19T04:42:06.700Z,10.10
2018-12-19T04:43:12.231Z,9.60
2018-12-19T04:44:17.762Z,10.80
2018-12-19T04:45:23.292Z,9.30
2018-12-19T04:46:28.821Z,10.20
2018-12-19T04:47:34.354Z,9.90
2018-12-19T04:48:39.889Z,10.10
2018-12-19T04:49:45.412Z,10.20
2018-12-19T04:50:50.947Z,11.20
2018-12-19T04:51:56.474Z,10.70
2018-12-19T04:53:02.010Z,9.80
2018-12-19T04:54:07.535Z,10.50
2018-12-19T04:55:13.068Z,10.40
2018-12-19T04:56:18.592Z,10.50
2018-12-19T04:57:24.128Z,11.40
2018-12-19T04:58:29.656Z,11.50
2018-12-19T04:59:35.191Z,11.20
2018-12-19T05:00:40.716Z,9.50
2018-12-19T05:01:46.246Z,10.50
2018-12-19T05:02:51.777Z,10.30
2018-12-19T05:03:57.311Z,11.20
2018-12-19T05:05:02.841Z,11.00
2018-12-19T05:06:08.367Z,10.60
2018-12-19T05:07:13.901Z,10.40
2018-12-19T05:08:19.428Z,10.60
2018-12-19T05:09:24.956Z,10.20
2018-12-19T05:10:30.492Z,10.90
2018-12-19T05:11:36.022Z,11.40
2018-12-19T05:12:41.550Z,12.20
2018-12-19T05:13:47.085Z,10.80
2018-12-19T05:14:52.614Z,11.20
2018-12-19T05:15:58.146Z,11.50
2018-12-19T05:17:03.728Z,10.00
2018-12-19T05:18:09.207Z,10.80
2018-12-19T05:19:14.732Z,12.10
2018-12-19T05:20:20.262Z,11.50
2018-12-19T05:21:25.791Z,10.60
2018-12-19T05:22:31.319Z,11.40
2018-12-19T05:23:36.850Z,11.50
2018-12-19T05:24:42.384Z,11.70
2018-12-19T05:25:47.914Z,12.50
2018-12-19T05:26:53.444Z,10.70
2018-12-19T05:27:58.974Z,11.50
2018-12-19T05:29:04.504Z,10.70
2018-12-19T05:30:10.037Z,11.60
2018-12-19T05:31:15.562Z,11.00
2018-12-19T05:32:21.096Z,10.70
2018-12-19T05:33:26.628Z,11.90
2018-12-19T05:34:32.166Z,11.80
2018-12-19T05:35:37.692Z,11.50
2018-12-19T05:36:43.225Z,11.60
2018-12-19T05:37:48.744Z,12.10
2018-12-19T05:38:54.278Z,11.60
2018-12-19T05:39:59.820Z,11.70
2018-12-19T05:41:05.342Z,11.60
2018-12-19T05:42:10.877Z,11.20
2018-12-19T05:43:16.404Z,11.50
2018-12-19T05:44:21.936Z,11.70
2018-12-19T05:45:27.457Z,11.50
2018-12-19T05:46:32.991Z,11.40
2018-12-19T05:47:38.526Z,12.50
2018-12-19T05:48:44.052Z,11.70
2018-12-19T05:49:49.583Z,12.50
2018-12-19T05:50:55.109Z,11.90
2018-12-19T05:52:00.647Z,12.40
2018-12-19T05:53:06.175Z,11.20
2018-12-19T05:54:11.704Z,13.20
2018-12-19T05:55:17.231Z,12.00
2018-12-19T05:56:22.762Z,11.90
2018-12-19T05:57:28.294Z,12.20
2018-12-19T05:58:33.824Z,12.80
2018-12-19T05:59:39.889Z,12.70
2018-12-19T06:00:44.889Z,12.60
2018-12-19T06:01:50.412Z,12.00
2018-12-19T06:02:55.942Z,12.70
2018-12-19T06:04:01.480Z,12.90
2018-12-19T06:05:07.006Z,12.50
2018-12-19T06:06:12.538Z,15.80
2018-12-19T06:07:18.067Z,16.20
2018-12-19T06:08:23.597Z,14.00
2018-12-19T06:09:29.127Z,12.80
2018-12-19T06:10:34.656Z,13.80
2018-12-19T06:11:40.187Z,13.30
2018-12-19T06:12:45.722Z,14.00
2018-12-19T06:13:51.249Z,14.50
2018-12-19T06:14:56.776Z,14.60
2018-12-19T06:16:02.308Z,13.20
2018-12-19T06:17:07.843Z,12.70
2018-12-19T06:18:13.367Z,12.70
2018-12-19T06:19:18.905Z,11.80
2018-12-19T06:20:24.430Z,12.40
2018-12-19T06:21:29.962Z,13.10
2018-12-19T06:22:35.489Z,14.20
2018-12-19T06:23:41.023Z,13.50
2018-12-19T06:24:46.553Z,13.70
2018-12-19T06:25:52.079Z,14.10
2018-12-19T06:26:57.614Z,15.40
2018-12-19T06:28:03.145Z,12.70
2018-12-19T06:29:08.672Z,13.50
2018-12-19T06:30:14.206Z,12.80
2018-12-19T06:31:19.737Z,12.50
2018-12-19T06:32:25.262Z,13.60
2018-12-19T06:33:30.793Z,13.80
2018-12-19T06:34:36.321Z,13.90
2018-12-19T06:35:41.854Z,13.00
2018-12-19T06:36:47.383Z,12.70
2018-12-19T06:37:52.912Z,11.60
2018-12-19T06:38:58.445Z,12.40
2018-12-19T06:40:03.974Z,13.70
2018-12-19T06:41:09.503Z,13.60
2018-12-19T06:42:15.037Z,15.40
2018-12-19T06:43:20.564Z,14.90
2018-12-19T06:44:26.093Z,18.40
2018-12-19T06:45:31.630Z,19.30
2018-12-19T06:46:37.154Z,14.00
2018-12-19T06:47:42.684Z,14.10
2018-12-19T06:48:48.215Z,13.80
2018-12-19T06:49:53.750Z,13.50
2018-12-19T06:50:59.280Z,13.60
2018-12-19T06:52:04.807Z,12.60
2018-12-19T06:53:10.333Z,12.80
2018-12-19T06:54:15.865Z,13.00
2018-12-19T06:55:21.397Z,12.70
2018-12-19T06:56:26.927Z,13.60
2018-12-19T06:57:32.462Z,13.50
2018-12-19T06:58:37.994Z,13.90
2018-12-19T06:59:43.559Z,14.40
2018-12-19T07:00:49.050Z,13.50
2018-12-19T07:01:54.577Z,13.40
2018-12-19T07:03:00.104Z,13.80
2018-12-19T07:04:05.636Z,14.00
2018-12-19T07:05:11.174Z,12.60
2018-12-19T07:06:16.697Z,13.50
2018-12-19T07:07:22.234Z,14.00
2018-12-19T07:08:27.758Z,12.50
2018-12-19T07:09:33.287Z,13.30
2018-12-19T07:10:39.257Z,14.50
2018-12-19T07:11:44.355Z,14.00
2018-12-19T07:12:49.880Z,13.80
2018-12-19T07:13:55.416Z,13.20
2018-12-19T07:15:00.947Z,13.50
2018-12-19T07:16:06.474Z,13.70
2018-12-19T07:17:11.998Z,13.10
2018-12-19T07:18:17.528Z,14.70
2018-12-19T07:19:23.061Z,13.20
2018-12-19T07:20:28.590Z,13.00
2018-12-19T07:21:34.126Z,14.50
2018-12-19T07:22:39.653Z,12.40
2018-12-19T07:23:45.186Z,12.20
2018-12-19T07:24:50.712Z,13.40
2018-12-19T07:25:56.243Z,13.50
2018-12-19T07:27:01.775Z,13.50
2018-12-19T07:28:07.310Z,13.10
2018-12-19T07:29:12.840Z,12.90
2018-12-19T07:30:18.373Z,13.80
2018-12-19T07:31:23.893Z,12.40
2018-12-19T07:32:29.429Z,13.70
2018-12-19T07:33:34.967Z,13.40
2018-12-19T07:34:44.156Z,13.30
2018-12-19T07:35:46.016Z,13.20
2018-12-19T07:36:51.546Z,12.00
2018-12-19T07:37:57.076Z,13.20
2018-12-19T07:39:02.608Z,13.20
2018-12-19T07:40:08.138Z,12.20
2018-12-19T07:41:13.668Z,13.30
2018-12-19T07:42:19.202Z,13.10
2018-12-19T07:43:24.734Z,12.30
2018-12-19T07:44:30.262Z,14.20
2018-12-19T07:45:35.792Z,11.90
2018-12-19T07:46:41.319Z,12.70
2018-12-19T07:47:46.849Z,11.70
2018-12-19T07:48:52.384Z,12.80
2018-12-19T07:49:57.918Z,13.20
2018-12-19T07:51:03.441Z,13.40
2018-12-19T07:52:08.972Z,13.50
2018-12-19T07:53:14.507Z,13.70
2018-12-19T07:54:20.033Z,12.60
2018-12-19T07:55:25.563Z,13.10
2018-12-19T07:56:31.095Z,12.80
2018-12-19T07:57:36.624Z,11.80
2018-12-19T07:58:42.159Z,11.50
2018-12-19T07:59:47.684Z,13.70
2018-12-19T08:00:53.216Z,13.00
2018-12-19T08:01:58.744Z,13.70
2018-12-19T08:03:04.273Z,13.70
2018-12-19T08:04:09.812Z,14.40
2018-12-19T08:05:15.334Z,13.40
2018-12-19T08:06:20.873Z,13.90
2018-12-19T08:07:26.393Z,13.90
2018-12-19T08:08:31.925Z,13.70
2018-12-19T08:09:37.456Z,12.80
2018-12-19T08:10:42.987Z,12.30
2018-12-19T08:11:48.526Z,12.90
2018-12-19T08:12:54.052Z,12.00
2018-12-19T08:13:59.578Z,12.10
2018-12-19T08:15:05.110Z,12.40
2018-12-19T08:16:10.642Z,12.30
2018-12-19T08:17:16.167Z,14.00
2018-12-19T08:18:21.699Z,14.00
2018-12-19T08:19:27.234Z,13.50
2018-12-19T08:20:32.760Z,14.20
2018-12-19T08:21:38.296Z,12.20
2018-12-19T08:22:43.824Z,12.30
2018-12-19T08:23:49.348Z,12.10
2018-12-19T08:24:54.881Z,14.00
2018-12-19T08:26:00.414Z,14.10
2018-12-19T08:27:05.943Z,15.90
2018-12-19T08:28:11.471Z,14.50
2018-12-19T08:29:17.002Z,13.90
2018-12-19T08:30:22.531Z,13.80
2018-12-19T08:31:28.063Z,13.60
2018-12-19T08:32:33.594Z,12.10
2018-12-19T08:33:39.125Z,12.50
2018-12-19T08:34:44.658Z,12.00
2018-12-19T08:35:50.185Z,12.00
2018-12-19T08:36:55.714Z,11.80
2018-12-19T08:38:01.246Z,11.90
2018-12-19T08:39:06.776Z,11.30
2018-12-19T08:40:12.313Z,10.90
2018-12-19T08:41:17.839Z,12.20
2018-12-19T08:42:23.369Z,11.00
2018-12-19T08:43:28.904Z,11.60
2018-12-19T08:44:34.435Z,11.20
2018-12-19T08:45:39.959Z,11.90
2018-12-19T08:46:45.491Z,12.30
2018-12-19T08:47:51.026Z,13.90
2018-12-19T08:48:56.558Z,12.80
2018-12-19T08:50:02.086Z,11.40
2018-12-19T08:51:07.616Z,12.10
2018-12-19T08:52:13.146Z,11.30
2018-12-19T08:53:18.678Z,12.10
2018-12-19T08:54:24.208Z,11.20
2018-12-19T08:55:29.736Z,11.10
2018-12-19T08:56:35.265Z,10.50
2018-12-19T08:57:40.796Z,11.00
2018-12-19T08:58:46.329Z,11.50
2018-12-19T08:59:51.857Z,11.00
2018-12-19T09:00:57.387Z,11.90
2018-12-19T09:02:02.916Z,11.10
2018-12-19T09:03:08.455Z,11.50
2018-12-19T09:04:13.983Z,11.10
2018-12-19T09:05:19.508Z,10.70
2018-12-19T09:06:25.043Z,10.80
2018-12-19T09:07:30.576Z,11.10
2018-12-19T09:08:36.108Z,10.60
2018-12-19T09:09:41.640Z,10.80
2018-12-19T09:10:47.163Z,10.30
2018-12-19T09:11:52.698Z,11.20
2018-12-19T09:12:58.226Z,10.50
2018-12-19T09:14:03.755Z,10.60
2018-12-19T09:15:09.290Z,11.30
2018-12-19T09:16:14.817Z,10.10
2018-12-19T09:17:20.348Z,11.00
2018-12-19T09:18:25.892Z,10.70
2018-12-19T09:19:31.410Z,11.10
2018-12-19T09:20:36.942Z,11.40
2018-12-19T09:21:42.469Z,10.80
2018-12-19T09:22:48.000Z,10.80
2018-12-19T09:23:53.534Z,9.90
2018-12-19T09:24:59.068Z,10.50
2018-12-19T09:26:04.599Z,10.70
2018-12-19T09:27:10.129Z,10.10
2018-12-19T09:28:15.660Z,10.40
2018-12-19T09:29:21.186Z,10.40
2018-12-19T09:30:26.719Z,9.70
2018-12-19T09:31:32.247Z,10.20
2018-12-19T09:32:37.780Z,10.60
2018-12-19T09:33:43.308Z,9.80
2018-12-19T09:34:48.846Z,10.00
2018-12-19T09:35:54.372Z,10.20
2018-12-19T09:36:59.900Z,10.00
2018-12-19T09:38:05.431Z,9.90
2018-12-19T09:39:10.967Z,10.50
2018-12-19T09:40:16.494Z,10.20
2018-12-19T09:41:22.020Z,9.70
2018-12-19T09:42:27.555Z,9.80
2018-12-19T09:43:33.086Z,10.00
2018-12-19T09:44:38.622Z,9.70
2018-12-19T09:45:44.154Z,10.70
2018-12-19T09:46:49.678Z,9.60
2018-12-19T09:47:55.216Z,9.50
2018-12-19T09:49:00.738Z,9.50
2018-12-19T09:50:06.276Z,10.60
2018-12-19T09:51:11.805Z,10.50
2018-12-19T09:52:17.329Z,10.60
2018-12-19T09:53:22.864Z,9.10
2018-12-19T09:54:28.399Z,9.10
2018-12-19T09:55:33.923Z,9.40
2018-12-19T09:56:39.455Z,10.60
2018-12-19T09:57:44.984Z,8.90
2018-12-19T09:58:50.515Z,9.80
2018-12-19T09:59:56.046Z,9.80
2018-12-19T10:01:01.995Z,10.30
2018-12-19T10:02:07.106Z,9.80
2018-12-19T10:03:12.641Z,9.70
2018-12-19T10:04:18.171Z,10.00
2018-12-19T10:05:23.700Z,10.60
2018-12-19T10:06:29.238Z,9.70
2018-12-19T10:07:34.767Z,8.60
2018-12-19T10:08:40.294Z,9.90
2018-12-19T10:09:45.822Z,9.90
2018-12-19T10:10:51.358Z,10.30
2018-12-19T10:11:56.892Z,9.20
2018-12-19T10:13:02.415Z,9.50
2018-12-19T10:14:07.953Z,10.00
2018-12-19T10:15:13.483Z,9.50
2018-12-19T10:16:19.013Z,9.50
2018-12-19T10:17:24.559Z,10.00
2018-12-19T10:18:30.073Z,9.70
2018-12-19T10:19:35.602Z,9.70
2018-12-19T10:20:41.135Z,9.90
2018-12-19T10:21:47.407Z,10.40
2018-12-19T10:22:52.196Z,10.00
2018-12-19T10:23:57.728Z,9.30
2018-12-19T10:25:03.261Z,9.00
2018-12-19T10:26:08.793Z,9.80
2018-12-19T10:27:14.322Z,10.00
2018-12-19T10:28:19.852Z,9.20
2018-12-19T10:29:25.384Z,9.40
2018-12-19T10:30:30.915Z,10.10
2018-12-19T10:31:36.444Z,9.50
2018-12-19T10:32:41.980Z,9.50
2018-12-19T10:33:47.507Z,9.40
2018-12-19T10:34:53.044Z,9.80
2018-12-19T10:35:58.573Z,9.10
2018-12-19T10:37:04.104Z,9.60
2018-12-19T10:38:09.637Z,9.20
2018-12-19T10:39:15.162Z,9.60
2018-12-19T10:40:20.697Z,9.40
2018-12-19T10:41:26.226Z,8.60
2018-12-19T10:42:31.755Z,8.20
2018-12-19T10:43:37.289Z,9.20
2018-12-19T10:44:42.821Z,9.60
2018-12-19T10:45:48.355Z,10.30
2018-12-19T10:46:53.880Z,10.30
2018-12-19T10:47:59.415Z,9.20
2018-12-19T10:49:04.941Z,9.70
2018-12-19T10:50:10.473Z,10.20
2018-12-19T10:51:16.005Z,10.30
2018-12-19T10:52:21.532Z,10.10
2018-12-19T10:53:27.074Z,9.00
2018-12-19T10:54:32.600Z,8.90
2018-12-19T10:55:38.132Z,8.70
2018-12-19T10:56:43.658Z,9.30
2018-12-19T10:57:49.190Z,9.20
2018-12-19T10:58:54.733Z,8.80
2018-12-19T11:00:00.254Z,9.50
2018-12-19T11:01:05.789Z,9.20
2018-12-19T11:02:11.319Z,8.30
2018-12-19T11:03:16.848Z,9.00
2018-12-19T11:04:22.382Z,8.90
2018-12-19T11:05:27.919Z,9.40
2018-12-19T11:06:33.440Z,9.30
2018-12-19T11:07:38.972Z,8.90
2018-12-19T11:08:44.503Z,9.30
2018-12-19T11:09:50.036Z,9.20
2018-12-19T11:10:55.569Z,8.40
2018-12-19T11:12:01.096Z,9.00
2018-12-19T11:13:06.625Z,8.50
2018-12-19T11:14:12.154Z,9.30
2018-12-19T11:15:17.688Z,9.30
2018-12-19T11:16:23.219Z,8.70
2018-12-19T11:17:28.756Z,8.80
2018-12-19T11:18:34.290Z,9.60
2018-12-19T11:19:39.819Z,8.70
2018-12-19T11:20:45.344Z,8.90
2018-12-19T11:21:50.881Z,8.70
2018-12-19T11:22:56.407Z,8.20
2018-12-19T11:24:01.942Z,8.60
2018-12-19T11:25:07.475Z,8.40
2018-12-19T11:26:13.004Z,9.60
2018-12-19T11:27:18.534Z,8.60
2018-12-19T11:28:24.061Z,8.80
2018-12-19T11:29:29.597Z,9.20
2018-12-19T11:30:35.126Z,8.50
2018-12-19T11:31:40.662Z,8.80
2018-12-19T11:32:46.191Z,9.00
2018-12-19T11:33:51.722Z,8.60
2018-12-19T11:34:57.252Z,8.10
2018-12-19T11:36:02.785Z,8.00
2018-12-19T11:37:08.313Z,8.90
2018-12-19T11:38:13.842Z,8.60
2018-12-19T11:39:19.381Z,8.50
2018-12-19T11:40:24.908Z,7.70
2018-12-19T11:41:30.443Z,8.60
2018-12-19T11:42:35.973Z,7.60
2018-12-19T11:43:41.500Z,7.60
2018-12-19T11:44:47.038Z,8.40
2018-12-19T11:45:52.561Z,8.30
2018-12-19T11:46:58.092Z,7.80
2018-12-19T11:48:03.623Z,9.00
2018-12-19T11:49:09.208Z,7.90
2018-12-19T11:50:14.695Z,9.40
2018-12-19T11:51:20.217Z,8.00
2018-12-19T11:52:25.757Z,8.90
2018-12-19T11:53:31.287Z,8.40
2018-12-19T11:54:36.817Z,8.90
2018-12-19T11:55:42.346Z,8.20
2018-12-19T11:56:47.877Z,7.70
2018-12-19T11:57:53.403Z,8.40
2018-12-19T11:58:58.936Z,8.20
2018-12-19T12:00:04.471Z,8.60
2018-12-19T12:01:10.000Z,8.20
2018-12-19T12:02:15.529Z,8.00
2018-12-19T12:03:21.063Z,8.50
2018-12-19T12:04:26.593Z,8.10
2018-12-19T12:05:32.132Z,8.60
2018-12-19T12:06:37.657Z,8.30
2018-12-19T12:07:43.202Z,9.30
2018-12-19T12:08:48.723Z,8.20
2018-12-19T12:09:54.263Z,7.80
2018-12-19T12:10:59.791Z,9.00
2018-12-19T12:12:05.323Z,8.70
2018-12-19T12:13:10.849Z,8.70
2018-12-19T12:14:16.378Z,9.10
2018-12-19T12:15:21.906Z,8.10
2018-12-19T12:16:27.444Z,7.60
2018-12-19T12:17:32.978Z,8.60
2018-12-19T12:18:38.503Z,7.80
2018-12-19T12:19:44.030Z,7.90
2018-12-19T12:20:49.576Z,8.30
2018-12-19T12:21:55.096Z,9.20
2018-12-19T12:23:00.627Z,8.70
2018-12-19T12:24:06.171Z,8.20
2018-12-19T12:25:11.690Z,8.20
2018-12-19T12:26:17.220Z,8.20
2018-12-19T12:27:22.763Z,8.80
2018-12-19T12:28:28.290Z,7.70
2018-12-19T12:29:33.823Z,8.40
2018-12-19T12:30:39.352Z,7.90
2018-12-19T12:31:44.877Z,8.50
2018-12-19T12:32:50.411Z,9.30
2018-12-19T12:33:55.942Z,9.10
2018-12-19T12:35:01.471Z,9.80
2018-12-19T12:36:07.013Z,9.90
2018-12-19T12:37:12.539Z,10.20
2018-12-19T12:38:18.069Z,11.00
2018-12-19T12:39:23.611Z,10.70
2018-12-19T12:40:29.134Z,9.40
2018-12-19T12:41:34.663Z,9.40
2018-12-19T12:42:40.201Z,9.60
2018-12-19T12:43:45.728Z,9.10
2018-12-19T12:44:51.274Z,9.60
2018-12-19T12:45:56.789Z,9.10
2018-12-19T12:47:02.319Z,9.10
2018-12-19T12:48:07.852Z,9.00
2018-12-19T12:49:13.384Z,8.60
2018-12-19T12:50:18.916Z,8.70
2018-12-19T12:51:24.444Z,8.60
2018-12-19T12:52:29.976Z,9.00
2018-12-19T12:53:35.511Z,8.90
2018-12-19T12:54:41.038Z,7.30
2018-12-19T12:55:46.578Z,9.40
2018-12-19T12:56:52.110Z,8.20
2018-12-19T12:57:57.637Z,8.20
2018-12-19T12:59:03.173Z,8.60
2018-12-19T13:00:08.703Z,9.20
2018-12-19T13:01:14.233Z,7.60
2018-12-19T13:02:19.769Z,8.80
2018-12-19T13:03:25.295Z,8.50
2018-12-19T13:04:30.829Z,8.50
2018-12-19T13:05:36.362Z,8.60
2018-12-19T13:06:41.891Z,9.20
2018-12-19T13:07:47.417Z,8.50
2018-12-19T13:08:53.016Z,8.20
2018-12-19T13:09:58.484Z,8.20
2018-12-19T13:11:04.011Z,8.70
2018-12-19T13:12:09.551Z,9.10
2018-12-19T13:13:15.074Z,8.70
2018-12-19T13:14:20.610Z,8.50
2018-12-19T13:15:26.148Z,8.70
2018-12-19T13:16:31.673Z,9.00
2018-12-19T13:17:37.213Z,9.30
2018-12-19T13:18:42.734Z,8.90
2018-12-19T13:19:48.271Z,9.40
2018-12-19T13:20:53.796Z,9.50
2018-12-19T13:21:59.329Z,9.00
2018-12-19T13:23:04.863Z,8.60
2018-12-19T13:24:10.394Z,8.50
2018-12-19T13:25:15.929Z,9.30
2018-12-19T13:26:21.455Z,9.30
2018-12-19T13:27:26.993Z,9.20
2018-12-19T13:28:32.528Z,7.90
2018-12-19T13:29:38.053Z,10.50
2018-12-19T13:30:43.584Z,9.20
2018-12-19T13:31:49.119Z,9.30
2018-12-19T13:32:54.650Z,9.90
2018-12-19T13:34:00.181Z,10.40
2018-12-19T13:35:05.708Z,10.90
2018-12-19T13:36:11.246Z,9.60
2018-12-19T13:37:16.774Z,9.40
2018-12-19T13:38:22.305Z,9.50
2018-12-19T13:39:27.838Z,9.90
2018-12-19T13:40:33.374Z,9.70
2018-12-19T13:41:38.915Z,9.90
2018-12-19T13:42:44.431Z,9.90
2018-12-19T13:43:49.969Z,9.10
2018-12-19T13:44:55.500Z,10.40
2018-12-19T13:46:01.028Z,10.60
2018-12-19T13:47:06.561Z,10.00
2018-12-19T13:48:12.090Z,8.50
2018-12-19T13:49:17.623Z,9.20
2018-12-19T13:50:23.159Z,9.70
2018-12-19T13:51:28.687Z,9.70
2018-12-19T13:52:34.217Z,9.00
2018-12-19T13:53:39.751Z,9.00
2018-12-19T13:54:45.281Z,10.10
2018-12-19T13:55:50.815Z,8.90
2018-12-19T13:56:56.345Z,8.70
2018-12-19T13:58:07.050Z,9.60
2018-12-19T13:59:07.414Z,10.30
2018-12-19T14:00:12.941Z,9.90
2018-12-19T14:01:18.480Z,9.70
2018-12-19T14:02:24.018Z,8.90
2018-12-19T14:03:29.535Z,9.70
2018-12-19T14:04:35.069Z,8.80
2018-12-19T14:05:40.599Z,9.60
2018-12-19T14:06:46.132Z,8.70
2018-12-19T14:07:51.666Z,9.10
2018-12-19T14:08:57.197Z,8.20
2018-12-19T14:10:02.727Z,7.30
2018-12-19T14:11:08.262Z,8.20
2018-12-19T14:12:13.793Z,8.30
2018-12-19T14:13:19.330Z,8.10
2018-12-19T14:14:24.852Z,8.20
2018-12-19T14:15:30.384Z,8.30
2018-12-19T14:16:35.917Z,9.20
2018-12-19T14:17:41.450Z,8.70
2018-12-19T14:18:46.981Z,8.60
2018-12-19T14:19:52.513Z,8.30